PINE FLAT DAM (PNF)

Elevation: 970' · KINGS R basin · Operator: US Army Corps of Engineers

Provisional data, subject to change.
Query executed Saturday at 17:59:13   clock

Select a sensor type for a plot of data.
Note: Reservoir Flows are daily averages.

Earlier

Date RES ELE    STORAGE    RES CHG    TOC STO    ABV TOC    OUTFLOW    INFLOW    FNF    PPT INC    PPTINC4    TEMP MN    TEMP MX    WINDLEN    EVP PAN   
 FEET   AF   AF   AF   AF   CFS   CFS   CFS   INCHES   INCHES   DEG F   DEG F   MILES   INCHES  
06/24/2016 876.34 609875 -4560 972247 -362372 5377 3118 3462 0.00 0.00 -- -- 60 0.29
06/25/2016 875.26 605019 -4856 977675 -- 5329 2920 3030 e 0.00 0.00 -- -- 49 0.29
06/26/2016 874.12 599915 -5104 982384 -- 5329 2796 2620 0.00 0.00 -- -- 58 0.29
06/27/2016 873.01 594967 -4948 986755 -391788 5333 2880 2623 e 0.01 0.00 -- -- 53 0.31
06/28/2016 871.89 589996 -4971 992074 -402078 5338 2867 2623 e 0.00 0.00 -- -- 48 0.27
06/29/2016 870.77 585047 -4949 997012 -411965 5377 2924 2559 0.00 0.00 -- -- 55 0.31
06/30/2016 869.62 580006 -- 1000000 -419994 5373 2874 2502 e 0.00 0.00 -- -- 52 0.30
07/01/2016 868.36 574471 -5535 1000000 -425529 5320 2573 2502 e 0.00 0.00 -- -- 47 0.30
07/02/2016 867.03 568677 -5794 1000000 -431323 5278 2399 2150 0.00 0.00 -- -- 52 0.30
07/03/2016 865.57 562352 -6325 1000000 -437648 5279 2132 2001 e 0.00 0.00 -- -- 54 0.30
07/04/2016 863.98 555523 -- 1000000 -444477 5278 1877 2001 e 0.00 0.00 -- -- 49 0.30
07/05/2016 862.26 548149 -7374 1000000 -451851 5712 2034 1662 0.00 0.00 -- -- 53 0.29
07/06/2016 860.29 539784 -8365 1000000 -460216 5896 1719 1662 0.02 0.00 -- -- 56 0.29
07/07/2016 858.26 531234 -8550 1000000 -468766 5924 1652 1379 0.00 0.00 -- -- 51 0.28
07/08/2016 856.16 522464 -8770 -- -- 5920 1537 1214 e 0.00 0.00 -- -- 52 0.29
07/09/2016 854.09 513892 -8572 1000000 -- 5813 1529 1213 e 0.00 0.00 -- -- 54 0.28
07/10/2016 851.98 505229 -8663 1000000 -- 5762 1433 1012 0.00 0.00 -- -- 70 0.29
07/11/2016 849.86 496602 -8627 1000000 -- 5663 1350 1012 e 0.00 0.00 -- -- 51 0.28
07/12/2016 847.79 488252 -8350 1000000 -511748 5571 1399 916 e 0.00 0.00 -- -- 52 0.29
07/13/2016 845.75 480094 -8158 995190 -515096 5542 1467 916 e 0.00 0.00 -- -- 51 0.29
07/14/2016 843.67 471849 -8245 985423 -513574 5574 1456 915 0.01 0.00 -- -- 49 0.30
07/15/2016 841.53 463443 -8406 975614 -512171 5648 1448 953 0.00 0.00 -- -- 50 0.30
07/16/2016 839.29 454727 -8716 965144 -510417 5687 1329 862 e 0.00 0.00 -- -- 52 0.29
07/17/2016 837.01 445943 -8784 955536 -509594 5688 1295 808 e 0.00 0.00 -- -- 53 0.29
07/18/2016 834.85 437703 -8240 945717 -508014 5506 1387 755 0.00 0.00 -- -- 55 0.29
07/19/2016 832.70 429580 -8123 935600 -506020 5314 1253 797 0.00 0.00 -- -- 47 0.28
07/20/2016 830.48 421274 -8306 925551 -504277 5414 1261 740 0.00 0.00 -- -- 54 0.29
07/21/2016 828.15 412647 -8627 915532 -502885 5499 1185 712 0.00 0.00 -- -- 55 0.29
07/22/2016 825.78 403966 -8681 -- -- 5569 1227 -- 0.00 0.00 -- -- 58 0.29
07/23/2016 -- -- -- -- -- -- -- -- -- 0.00 -- -- -- --

Later | Latest

Warning! This data is preliminary and subject to revision.

Show PNF Map | Plot PNF Data | 1 Month PNF Data | Real-Time PNF Data | PNF Info